Weather observations for the past three days for
Yakima Air Terminal - McAllister Field
| Date | Time (pdt) | Wind (mph) | Vis. (mi.) | Weather | Sky Cond. | Temperature (ºF) | Relative Humidity | Wind Chill (°F) | Heat Index (°F) | Pressure | Precipitation (in) | ||||||
|---|---|---|---|---|---|---|---|---|---|---|---|---|---|---|---|---|---|
| Air | Dwpt | 6 hour | altimeter (in) | sea level (mb) | 1 hr | 3 hr | 6 hr | ||||||||||
| Max. | Min. | ||||||||||||||||
| 06 | 00:53 | SW 6 | 10.00 | Fair | CLR | 53.1 | 43 | 69% | 29.88 | 1011.2 | |||||||
| 05 | 23:53 | Vrbl 5 | 10.00 | Fair | CLR | 63 | 42.1 | 47% | 29.87 | 1010.9 | |||||||
| 05 | 22:53 | NW 8 | 10.00 | Fair | CLR | 72 | 39 | 84.9 | 68 | 30% | 29.86 | 1010.5 | |||||
| 05 | 21:53 | N 15 G 22 | 10.00 | Fair | CLR | 75 | 39 | 27% | 77 | 29.85 | 1010.1 | ||||||
| 05 | 20:53 | SW 9 | 10.00 | Fair | CLR | 75 | 39 | 27% | 77 | 29.83 | 1009.3 | ||||||
| 05 | 19:53 | E 5 | 10.00 | A Few Clouds | FEW100 | 80.1 | 43 | 27% | 79 | 29.81 | 1008.7 | ||||||
| 05 | 18:53 | SE 5 | 10.00 | Fair | CLR | 82.9 | 42.1 | 24% | 81 | 29.8 | 1008.2 | ||||||
| 05 | 17:53 | SE 7 | 10.00 | A Few Clouds | FEW110 | 84 | 39.9 | 21% | 81 | 29.8 | 1008.4 | ||||||
| 05 | 16:53 | Vrbl 5 | 10.00 | Fair | CLR | 84 | 39.9 | 86 | 80.1 | 21% | 81 | 29.81 | 1008.6 | ||||
| 05 | 15:53 | Vrbl 6 | 10.00 | Fair | CLR | 84.9 | 41 | 21% | 82 | 29.82 | 1008.9 | ||||||
| 05 | 14:53 | NE 6 | 10.00 | Fair | CLR | 84 | 39.9 | 21% | 81 | 29.84 | 1009.5 | ||||||
| 05 | 13:53 | E 7 | 10.00 | Fair | CLR | 84.9 | 37.9 | 19% | 82 | 29.84 | 1009.7 | ||||||
| 05 | 12:53 | Calm | 10.00 | Fair | CLR | 84 | 37.9 | 19% | 81 | 29.86 | 1010.2 | ||||||
| 05 | 11:53 | N 9 | 10.00 | A Few Clouds | FEW110 | 81 | 39 | 22% | 79 | 29.86 | 1010.3 | ||||||
| 05 | 10:53 | N 9 | 10.00 | A Few Clouds | FEW110 | 80.1 | 41 | 80.1 | 57.9 | 25% | 79 | 29.87 | 1010.5 | ||||
| 05 | 09:53 | N 5 | 10.00 | Fair | CLR | 75 | 45 | 34% | 77 | 29.87 | 1010.7 | ||||||
| 05 | 08:53 | N 3 | 10.00 | A Few Clouds | FEW110 | 70 | 45 | 41% | 29.87 | 1010.6 | |||||||
| 05 | 07:53 | NW 6 | 10.00 | A Few Clouds | FEW110 | 68 | 45 | 44% | 29.86 | 1010.4 | |||||||
| 05 | 06:53 | NW 7 | 10.00 | Partly Cloudy | SCT110 | 64 | 43 | 46% | 29.85 | 1009.9 | |||||||
| 05 | 05:53 | W 6 | 10.00 | Partly Cloudy | SCT110 | 57.9 | 43 | 58% | 29.82 | 1009.2 | |||||||
| 05 | 04:53 | NW 8 | 10.00 | Mostly Cloudy | BKN110 | 64 | 42.1 | 73 | 64 | 45% | 29.81 | 1008.5 | |||||
| 05 | 03:53 | W 8 | 10.00 | Partly Cloudy | SCT110 | 64 | 42.1 | 45% | 29.79 | 1008.1 | |||||||
| 05 | 02:53 | W 6 | 10.00 | Fair | CLR | 64.9 | 42.1 | 43% | 29.78 | 1007.6 | |||||||
| 05 | 01:53 | W 7 | 10.00 | Partly Cloudy | SCT120 | 68 | 42.1 | 39% | 29.77 | 1007.2 | |||||||
| 05 | 00:53 | N 6 | 10.00 | Mostly Cloudy | BKN110 | 68 | 41 | 38% | 29.77 | 1007.4 | |||||||
| 04 | 23:53 | W 5 | 10.00 | Mostly Cloudy | BKN120 | 70 | 41 | 35% | 29.76 | 1006.8 | |||||||
| 04 | 22:53 | N 9 | 10.00 | A Few Clouds | FEW120 | 71.1 | 39.9 | 89.1 | 71.1 | 32% | 29.75 | 1006.7 | |||||
| 04 | 21:53 | W 8 | 10.00 | Partly Cloudy | SCT120 | 73.9 | 39.9 | 29% | 29.74 | 1006.3 | |||||||
| 04 | 20:53 | NW 10 G 22 | 10.00 | Fair | CLR | 77 | 39 | 26% | 77 | 29.71 | 1005.5 | ||||||
| 04 | 19:53 | NW 18 | 10.00 | Fair | CLR | 81 | 37.9 | 21% | 79 | 29.69 | 1004.6 | ||||||
| 04 | 18:53 | NW 17 G 28 | 10.00 | Partly Cloudy | SCT110 | 84.9 | 36 | 17% | 82 | 29.68 | 1004.4 | ||||||
| 04 | 17:53 | Calm | 10.00 | Fair | CLR | 88 | 37 | 16% | 84 | 29.68 | 1004.6 | ||||||
| 04 | 16:53 | SW 6 | 10.00 | Fair | CLR | 88 | 37 | 88 | 79 | 16% | 84 | 29.69 | 1004.6 | ||||
| 04 | 15:53 | NW 5 | 10.00 | Fair | CLR | 87.1 | 37 | 17% | 84 | 29.7 | 1005.1 | ||||||
| 04 | 14:53 | Calm | 10.00 | Fair | CLR | 86 | 35.1 | 16% | 83 | 29.73 | 1005.9 | ||||||
| 04 | 13:53 | Vrbl 6 | 10.00 | Fair | CLR | 87.1 | 36 | 16% | 84 | 29.75 | 1006.5 | ||||||
| 04 | 12:53 | Vrbl 3 | 10.00 | Fair | CLR | 84 | 37 | 19% | 81 | 29.76 | 1007.2 | ||||||
| 04 | 11:53 | W 6 | 10.00 | Fair | CLR | 82.9 | 37 | 19% | 80 | 29.78 | 1007.8 | ||||||
| 04 | 10:53 | Vrbl 5 | 10.00 | Fair | CLR | 79 | 37.9 | 79 | 46.9 | 23% | 78 | 29.79 | 1008.2 | ||||
| 04 | 09:53 | NW 5 | 10.00 | Fair | CLR | 75 | 35.1 | 23% | 76 | 29.8 | 1008.5 | ||||||
| 04 | 08:53 | NW 7 | 10.00 | Fair | CLR | 70 | 36 | 29% | 29.81 | 1008.6 | |||||||
| 04 | 07:53 | NW 7 | 10.00 | Fair | CLR | 64.9 | 37 | 36% | 29.81 | 1009.0 | |||||||
| 04 | 06:53 | W 6 | 10.00 | Fair | CLR | 55.9 | 41 | 57% | 29.81 | 1008.7 | |||||||
| 04 | 05:53 | W 8 | 10.00 | Fair | CLR | 48 | 41 | 77% | 45 | 29.79 | 1008.5 | ||||||
| 04 | 04:53 | W 7 | 10.00 | Fair | CLR | 50 | 41 | 63 | 48.9 | 71% | 48 | 29.79 | 1008.4 | ||||
| 04 | 03:53 | W 8 | 10.00 | Fair | CLR | 52 | 41 | 66% | 29.79 | 1008.4 | |||||||
| 04 | 02:53 | Calm | 10.00 | Fair | CLR | 52 | 42.1 | 69% | 29.79 | 1008.2 | |||||||
| 04 | 01:53 | W 5 | 10.00 | Fair | CLR | 55.9 | 43 | 62% | 29.79 | 1008.2 | |||||||
| 04 | 00:53 | W 7 | 10.00 | Fair | CLR | 57 | 43 | 60% | 29.79 | 1008.2 | |||||||
| 03 | 23:53 | W 7 | 10.00 | Fair | CLR | 60.1 | 44.1 | 56% | 29.79 | 1008.3 | |||||||
| 03 | 22:53 | NW 7 | 10.00 | Fair | CLR | 61 | 45 | 84.9 | 60.1 | 56% | 29.79 | 1008.3 | |||||
| 03 | 19:53 | S 6 | 10.00 | Fair | CLR | 77 | 42.1 | 29% | 78 | 29.76 | 1007.1 | ||||||
| 03 | 18:53 | S 6 | 10.00 | Fair | CLR | 82.9 | 39 | 21% | 81 | 29.76 | 1007.3 | ||||||
| 03 | 17:53 | Calm | 10.00 | Fair | CLR | 84 | 35.1 | 17% | 81 | 29.78 | 1008.0 | ||||||
| 03 | 16:53 | S 7 | 10.00 | Fair | CLR | 84.9 | 36 | 86 | 77 | 17% | 82 | 29.8 | 1008.7 | ||||
| 03 | 15:53 | Vrbl 3 | 10.00 | Fair | CLR | 84 | 36 | 18% | 81 | 29.83 | 1009.5 | ||||||
| 03 | 14:53 | SW 7 | 10.00 | Fair | CLR | 84.9 | 37 | 18% | 82 | 29.86 | 1010.5 | ||||||
| 03 | 13:53 | SW 6 | 10.00 | Fair | CLR | 82.9 | 36 | 19% | 80 | 29.88 | 1011.3 | ||||||
| 03 | 12:53 | SE 9 | 10.00 | Fair | CLR | 82.9 | 37 | 19% | 80 | 29.9 | 1012.0 | ||||||
| 03 | 11:53 | Vrbl 5 | 10.00 | Fair | CLR | 80.1 | 39 | 23% | 79 | 29.93 | 1012.9 | ||||||
| 03 | 10:53 | SW 6 | 10.00 | Fair | CLR | 78.1 | 41 | 78.1 | 45 | 27% | 78 | 29.94 | 1013.4 | ||||
| 03 | 09:53 | Vrbl 5 | 10.00 | Fair | CLR | 73.9 | 43 | 33% | 29.95 | 1013.7 | |||||||
| 03 | 08:53 | NW 7 | 10.00 | Fair | CLR | 66.9 | 44.1 | 44% | 29.97 | 1014.4 | |||||||
| 03 | 07:53 | W 7 | 10.00 | Fair | CLR | 62.1 | 42.1 | 48% | 29.97 | 1014.2 | |||||||
| 03 | 06:53 | W 8 | 10.00 | Fair | CLR | 52 | 42.1 | 69% | 29.97 | 1014.3 | |||||||
| 03 | 05:53 | W 7 | 10.00 | Fair | CLR | 46 | 39.9 | 79% | 43 | 29.96 | 1014.1 | ||||||
| 03 | 04:53 | W 8 | 10.00 | Fair | CLR | 46.9 | 39.9 | 60.1 | 46.9 | 77% | 44 | 29.96 | 1014.2 | ||||
| 03 | 03:53 | W 8 | 10.00 | Fair | CLR | 48 | 41 | 77% | 45 | 29.96 | 1014.2 | ||||||
| 03 | 02:53 | W 7 | 10.00 | Fair | CLR | 50 | 41 | 71% | 48 | 29.96 | 1014.1 | ||||||
| 03 | 01:53 | W 6 | 10.00 | Fair | CLR | 57 | 39.9 | 53% | 29.96 | 1013.9 | |||||||
| Date | Time (pdt) | Wind (mph) | Vis. (mi.) | Weather | Sky Cond. | Air | Dwpt | Max. | Min. | Relative Humidity | Wind Chill (°F) | Heat Index (°F) | altimeter (in) | sea level (mb) | 1 hr | 3 hr | 6 hr |
| 6 hour | |||||||||||||||||
| Temperature (ºF) | Pressure | Precipitation (in) | |||||||||||||||